createdAt,value
2022-10-30T00:02:08.803Z,99407.47
2022-10-30T00:04:37.184Z,99393.44
2022-10-30T00:07:05.722Z,99393.88
2022-10-30T00:09:34.368Z,99398.16
2022-10-30T00:12:04.398Z,99403.41
2022-10-30T00:14:33.165Z,99404.63
2022-10-30T00:17:01.513Z,99390.38
2022-10-30T00:19:29.884Z,99395.97
2022-10-30T00:24:26.044Z,99404.28
2022-10-30T00:26:54.409Z,99404.09
2022-10-30T00:29:26.247Z,99407.06
2022-10-30T00:31:55.076Z,99409.69
2022-10-30T00:34:23.423Z,99407.25
2022-10-30T00:36:51.891Z,99410.47
2022-10-30T00:39:20.529Z,99411.91
2022-10-30T00:41:49.220Z,99410.69
2022-10-30T00:44:41.521Z,99408.97
2022-10-30T00:47:16.520Z,99414.34
2022-10-30T00:49:52.683Z,99415.13
2022-10-30T00:52:23.333Z,99415.00
2022-10-30T00:54:53.598Z,99414.91
2022-10-30T00:57:22.454Z,99410.31
2022-10-30T00:59:53.060Z,99409.94
2022-10-30T01:02:23.354Z,99407.56
2022-10-30T01:04:54.306Z,99406.97
2022-10-30T01:07:22.898Z,99405.00
2022-10-30T01:09:52.063Z,99406.53
2022-10-30T01:12:20.530Z,99402.09
2022-10-30T01:14:54.146Z,99408.16
2022-10-30T01:17:40.461Z,99400.22
2022-10-30T01:20:24.049Z,99397.34
2022-10-30T01:23:00.689Z,99400.84
2022-10-30T01:25:40.994Z,99407.59
2022-10-30T01:28:27.894Z,99408.94
2022-10-30T01:31:10.113Z,99413.00
2022-10-30T01:33:54.197Z,99407.22
2022-10-30T01:36:29.012Z,99405.69
2022-10-30T01:39:02.747Z,99408.50
2022-10-30T01:41:31.270Z,99396.44
2022-10-30T01:44:06.524Z,99397.22
2022-10-30T01:46:45.843Z,99405.88
2022-10-30T01:49:34.200Z,99397.75
2022-10-30T01:52:14.364Z,99399.22
2022-10-30T01:54:50.783Z,99413.50
2022-10-30T01:57:36.586Z,99411.69
2022-10-30T02:00:09.276Z,99409.81
2022-10-30T02:02:49.210Z,99409.59
2022-10-30T02:05:30.742Z,99404.94
2022-10-30T02:07:59.710Z,99406.25
2022-10-30T02:10:30.784Z,99403.25
2022-10-30T02:13:00.716Z,99395.78
2022-10-30T02:15:29.226Z,99395.38
2022-10-30T02:17:58.348Z,99403.78
2022-10-30T02:20:28.395Z,99399.59
2022-10-30T02:22:59.254Z,99401.66
2022-10-30T02:25:32.448Z,99397.75
2022-10-30T02:28:00.979Z,99412.94
2022-10-30T02:30:32.125Z,99412.13
2022-10-30T02:33:02.823Z,99414.09
2022-10-30T02:35:32.992Z,99416.06
2022-10-30T02:38:01.660Z,99410.25
2022-10-30T02:40:30.151Z,99407.75
2022-10-30T02:42:58.626Z,99416.88
2022-10-30T02:45:27.299Z,99408.34
2022-10-30T02:47:56.051Z,99409.31
2022-10-30T02:50:24.858Z,99399.88
2022-10-30T02:52:55.230Z,99403.53
2022-10-30T02:55:24.015Z,99409.00
2022-10-30T02:57:55.188Z,99406.09
2022-10-30T03:00:24.258Z,99404.66
2022-10-30T03:02:56.295Z,99407.34
2022-10-30T03:05:25.561Z,99390.09
2022-10-30T03:07:56.535Z,99403.19
2022-10-30T03:10:25.374Z,99412.75
2022-10-30T03:12:54.036Z,99414.75
2022-10-30T03:15:22.524Z,99410.50
2022-10-30T03:17:52.727Z,99415.81
2022-10-30T03:20:21.428Z,99415.09
2022-10-30T03:22:49.798Z,99421.41
2022-10-30T03:25:23.663Z,99412.84
2022-10-30T03:27:56.256Z,99422.63
2022-10-30T03:30:24.972Z,99426.44
2022-10-30T03:32:54.356Z,99426.31
2022-10-30T03:35:22.823Z,99418.50
2022-10-30T03:37:51.180Z,99426.56
2022-10-30T03:40:22.182Z,99422.47
2022-10-30T03:42:51.339Z,99424.41
2022-10-30T03:45:19.752Z,99431.53
2022-10-30T03:47:48.454Z,99424.47
2022-10-30T03:50:17.041Z,99431.72
2022-10-30T03:52:45.538Z,99435.19
2022-10-30T03:55:14.740Z,99433.38
2022-10-30T03:57:45.334Z,99428.94
2022-10-30T04:00:19.999Z,99424.66
2022-10-30T04:02:56.478Z,99415.88
2022-10-30T04:05:27.875Z,99419.47
2022-10-30T04:07:59.093Z,99422.13
2022-10-30T04:10:28.946Z,99428.22
2022-10-30T04:13:03.130Z,99420.84
2022-10-30T04:15:32.542Z,99425.94
2022-10-30T04:18:01.726Z,99424.19
2022-10-30T04:20:31.374Z,99420.72
2022-10-30T04:23:01.325Z,99414.59
2022-10-30T04:25:30.744Z,99408.44
2022-10-30T04:28:03.084Z,99412.09
2022-10-30T04:30:35.129Z,99409.56
2022-10-30T04:33:05.124Z,99405.34
2022-10-30T04:35:36.965Z,99409.06
2022-10-30T04:38:09.210Z,99406.53
2022-10-30T04:40:39.287Z,99414.72
2022-10-30T04:43:11.813Z,99407.00
2022-10-30T04:45:41.533Z,99399.91
2022-10-30T04:48:17.162Z,99395.53
2022-10-30T04:50:46.188Z,99400.13
2022-10-30T04:53:22.031Z,99399.59
2022-10-30T04:55:55.350Z,99389.16
2022-10-30T04:58:25.306Z,99385.91
2022-10-30T05:01:03.381Z,99385.19
2022-10-30T05:03:32.818Z,99381.81
2022-10-30T05:06:04.325Z,99389.75
2022-10-30T05:08:33.238Z,99391.19
2022-10-30T05:11:06.735Z,99382.38
2022-10-30T05:13:36.536Z,99385.13
2022-10-30T05:16:05.249Z,99393.88
2022-10-30T05:18:33.993Z,99387.44
2022-10-30T05:21:03.783Z,99393.44
2022-10-30T05:23:32.168Z,99396.34
2022-10-30T05:26:01.369Z,99392.88
2022-10-30T05:28:30.905Z,99393.78
2022-10-30T05:31:01.570Z,99386.84
2022-10-30T05:34:07.420Z,99385.13
2022-10-30T05:36:36.835Z,99385.84
2022-10-30T05:39:05.647Z,99387.53
2022-10-30T05:41:37.987Z,99375.94
2022-10-30T05:44:06.508Z,99383.06
2022-10-30T05:46:36.807Z,99377.06
2022-10-30T05:49:17.628Z,99379.72
2022-10-30T05:51:47.822Z,99381.41
2022-10-30T05:54:17.304Z,99381.69
2022-10-30T05:57:08.198Z,99387.25
2022-10-30T05:59:38.720Z,99384.63
2022-10-30T06:02:08.537Z,99382.78
2022-10-30T06:04:37.883Z,99390.56
2022-10-30T06:07:12.280Z,99378.06
2022-10-30T06:09:40.927Z,99385.00
2022-10-30T06:12:27.422Z,99385.81
2022-10-30T06:15:22.501Z,99393.63
2022-10-30T06:17:52.443Z,99390.09
2022-10-30T06:20:38.125Z,99394.63
2022-10-30T06:23:24.721Z,99389.22
2022-10-30T06:26:22.379Z,99394.31
2022-10-30T06:28:56.334Z,99389.16
2022-10-30T06:31:24.749Z,99399.59
2022-10-30T06:33:54.496Z,99397.00
2022-10-30T06:36:23.770Z,99391.66
2022-10-30T06:38:58.404Z,99390.50
2022-10-30T06:41:31.138Z,99383.50
2022-10-30T06:44:27.249Z,99387.88
2022-10-30T06:46:55.960Z,99382.47
2022-10-30T06:49:26.177Z,99381.03
2022-10-30T06:52:11.810Z,99372.13
2022-10-30T06:54:40.380Z,99378.16
2022-10-30T06:57:27.674Z,99379.91
2022-10-30T07:00:14.857Z,99387.59
2022-10-30T07:03:08.830Z,99382.00
2022-10-30T07:05:40.537Z,99369.28
2022-10-30T07:08:17.333Z,99374.09
2022-10-30T07:11:05.063Z,99374.47
2022-10-30T07:13:36.244Z,99373.69
2022-10-30T07:16:19.350Z,99365.19
2022-10-30T07:18:51.056Z,99374.31
2022-10-30T07:21:20.884Z,99376.81
2022-10-30T07:23:49.607Z,99374.84
2022-10-30T07:26:26.844Z,99371.06
2022-10-30T07:28:56.971Z,99373.88
2022-10-30T07:31:57.599Z,99368.56
2022-10-30T07:34:45.965Z,99370.16
2022-10-30T07:37:31.554Z,99373.16
2022-10-30T07:40:12.669Z,99370.56
2022-10-30T07:43:10.357Z,99371.59
2022-10-30T07:45:46.793Z,99360.84
2022-10-30T07:48:34.080Z,99367.84
2022-10-30T07:51:09.711Z,99364.59
2022-10-30T07:53:40.428Z,99361.03
2022-10-30T07:56:10.917Z,99365.69
2022-10-30T07:59:11.431Z,99357.81
2022-10-30T08:02:00.754Z,99368.25
2022-10-30T08:04:36.301Z,99362.22
2022-10-30T08:07:22.439Z,99359.88
2022-10-30T08:09:52.694Z,99366.63
2022-10-30T08:12:21.379Z,99362.72
2022-10-30T08:14:50.181Z,99359.06
2022-10-30T08:17:18.731Z,99354.13
2022-10-30T08:19:47.329Z,99353.03
2022-10-30T08:22:16.190Z,99356.78
2022-10-30T08:24:46.353Z,99333.28
2022-10-30T08:27:17.118Z,99335.44
2022-10-30T08:29:45.489Z,99343.75
2022-10-30T08:32:14.196Z,99341.97
2022-10-30T08:35:01.259Z,99340.03
2022-10-30T08:37:31.307Z,99334.97
2022-10-30T08:39:59.691Z,99331.25
2022-10-30T08:42:29.476Z,99329.16
2022-10-30T08:45:00.282Z,99329.22
2022-10-30T08:47:48.900Z,99338.75
2022-10-30T08:50:17.369Z,99332.03
2022-10-30T08:52:49.448Z,99335.13
2022-10-30T08:55:20.928Z,99338.31
2022-10-30T08:57:50.644Z,99333.84
2022-10-30T09:00:19.335Z,99330.03
2022-10-30T09:03:10.968Z,99329.09
2022-10-30T09:05:59.194Z,99344.69
2022-10-30T09:08:53.633Z,99345.25
2022-10-30T09:11:51.131Z,99344.88
2022-10-30T09:14:20.847Z,99339.13
2022-10-30T09:16:49.232Z,99342.03
2022-10-30T09:19:20.418Z,99339.16
2022-10-30T09:21:50.231Z,99334.28
2022-10-30T09:24:18.846Z,99333.75
2022-10-30T09:26:53.009Z,99336.41
2022-10-30T09:29:27.871Z,99326.78
2022-10-30T09:32:10.351Z,99330.84
2022-10-30T09:34:59.002Z,99337.41
2022-10-30T09:37:29.993Z,99336.31
2022-10-30T09:40:01.227Z,99328.41
2022-10-30T09:42:45.597Z,99338.69
2022-10-30T09:45:36.705Z,99336.44
2022-10-30T09:48:21.379Z,99340.63
2022-10-30T09:51:44.893Z,99337.31
2022-10-30T09:54:26.831Z,99330.00
2022-10-30T09:57:05.429Z,99327.06
2022-10-30T09:59:46.436Z,99336.41
2022-10-30T10:02:35.363Z,99327.44
2022-10-30T10:05:13.918Z,99330.31
2022-10-30T10:08:12.705Z,99323.34
2022-10-30T10:11:04.935Z,99335.09
2022-10-30T10:13:43.474Z,99332.84
2022-10-30T10:16:20.081Z,99327.53
2022-10-30T10:18:49.957Z,99337.00
2022-10-30T10:21:37.300Z,99331.69
2022-10-30T10:24:19.628Z,99331.53
2022-10-30T10:26:51.100Z,99332.56
2022-10-30T10:29:50.368Z,99319.09
2022-10-30T10:32:53.157Z,99318.66
2022-10-30T10:35:55.904Z,99311.47
2022-10-30T10:38:54.655Z,99310.59
2022-10-30T10:41:36.743Z,99307.31
2022-10-30T10:44:22.743Z,99308.47
2022-10-30T10:47:07.015Z,99312.69
2022-10-30T10:50:08.054Z,99312.63
2022-10-30T10:52:40.917Z,99315.34
2022-10-30T10:55:29.837Z,99311.78
2022-10-30T10:58:05.795Z,99303.94
2022-10-30T11:00:34.707Z,99315.66
2022-10-30T11:03:21.991Z,99308.00
2022-10-30T11:05:54.050Z,99299.44
2022-10-30T11:08:26.561Z,99311.59
2022-10-30T11:11:00.817Z,99308.94
2022-10-30T11:13:32.310Z,99308.03
2022-10-30T11:16:12.449Z,99294.00
2022-10-30T11:18:42.484Z,99297.56
2022-10-30T11:21:29.764Z,99300.88
2022-10-30T11:23:58.090Z,99302.41
2022-10-30T11:26:37.472Z,99300.19
2022-10-30T11:29:14.111Z,99302.03
2022-10-30T11:31:44.032Z,99302.06
2022-10-30T11:34:25.654Z,99295.94
2022-10-30T11:37:06.734Z,99301.03
2022-10-30T11:39:36.280Z,99299.31
2022-10-30T11:42:13.013Z,99304.56
2022-10-30T11:44:43.950Z,99299.84
2022-10-30T11:47:15.454Z,99303.38
2022-10-30T11:49:48.867Z,99301.50
2022-10-30T11:52:21.515Z,99304.63
2022-10-30T11:54:54.981Z,99306.94
2022-10-30T11:57:34.503Z,99302.84
2022-10-30T12:00:06.278Z,99308.81
2022-10-30T12:02:43.475Z,99298.38
2022-10-30T12:05:32.148Z,99303.94
2022-10-30T12:08:18.803Z,99313.50
2022-10-30T12:10:58.144Z,99297.63
2022-10-30T12:13:29.193Z,99305.91
2022-10-30T12:16:10.670Z,99305.06
2022-10-30T12:18:54.356Z,99302.81
2022-10-30T12:21:22.770Z,99300.88
2022-10-30T12:23:58.003Z,99302.38
2022-10-30T12:26:39.791Z,99293.69
2022-10-30T12:29:16.089Z,99291.78
2022-10-30T12:31:51.739Z,99309.56
2022-10-30T12:34:39.173Z,99294.75
2022-10-30T12:37:14.697Z,99299.31
2022-10-30T12:39:50.948Z,99298.25
2022-10-30T12:42:23.507Z,99296.94
2022-10-30T12:45:03.398Z,99291.28
2022-10-30T12:47:40.131Z,99290.91
2022-10-30T12:50:19.664Z,99291.75
2022-10-30T12:52:53.740Z,99281.75
2022-10-30T12:55:27.584Z,99277.81
2022-10-30T13:01:02.784Z,99280.59
2022-10-30T13:03:37.686Z,99284.94
2022-10-30T13:06:12.374Z,99282.59
2022-10-30T13:08:48.616Z,99273.59
2022-10-30T13:11:28.826Z,99281.81
2022-10-30T13:14:01.130Z,99286.25
2022-10-30T13:16:32.380Z,99280.56
2022-10-30T13:19:02.684Z,99277.75
2022-10-30T13:21:39.912Z,99271.84
2022-10-30T13:24:13.102Z,99276.84
2022-10-30T13:26:48.415Z,99280.22
2022-10-30T13:29:23.580Z,99267.91
2022-10-30T13:32:05.277Z,99270.22
2022-10-30T13:34:43.815Z,99265.72
2022-10-30T13:37:19.305Z,99266.16
2022-10-30T13:40:01.381Z,99263.34
2022-10-30T13:42:44.455Z,99268.31
2022-10-30T13:45:35.529Z,99262.88
2022-10-30T13:48:16.939Z,99262.19
2022-10-30T13:51:09.360Z,99270.00
2022-10-30T13:53:44.690Z,99256.34
2022-10-30T13:56:18.458Z,99262.91
2022-10-30T13:58:53.386Z,99264.03
2022-10-30T14:01:26.113Z,99254.34
2022-10-30T14:04:04.477Z,99268.00
2022-10-30T14:06:41.460Z,99264.88
2022-10-30T14:09:20.798Z,99263.81
2022-10-30T14:11:49.353Z,99264.91
2022-10-30T14:14:29.950Z,99266.53
2022-10-30T14:17:14.351Z,99266.91
2022-10-30T14:20:16.674Z,99272.38
2022-10-30T14:23:07.745Z,99278.06
2022-10-30T14:25:36.174Z,99271.78
2022-10-30T14:28:05.996Z,99277.03
2022-10-30T14:30:35.384Z,99272.81
2022-10-30T14:33:03.919Z,99271.31
2022-10-30T14:35:41.332Z,99284.97
2022-10-30T14:38:37.896Z,99286.09
2022-10-30T14:41:51.410Z,99291.78
2022-10-30T14:44:39.067Z,99293.16
2022-10-30T14:47:41.035Z,99290.34
2022-10-30T14:50:20.600Z,99292.28
2022-10-30T14:53:10.614Z,99298.78
2022-10-30T14:55:54.571Z,99301.94
2022-10-30T14:58:26.057Z,99303.63
2022-10-30T15:01:32.468Z,99306.13
2022-10-30T15:04:22.669Z,99301.19
2022-10-30T15:07:07.539Z,99297.72
2022-10-30T15:10:01.651Z,99304.34
2022-10-30T15:12:48.026Z,99305.44
2022-10-30T15:15:18.552Z,99309.31
2022-10-30T15:17:56.087Z,99306.25
2022-10-30T15:20:26.332Z,99308.22
2022-10-30T15:22:58.512Z,99310.63
2022-10-30T15:25:43.574Z,99311.25
2022-10-30T15:28:18.108Z,99320.44
2022-10-30T15:31:01.100Z,99323.00
2022-10-30T15:33:39.384Z,99325.09
2022-10-30T15:36:22.113Z,99325.25
2022-10-30T15:39:12.388Z,99330.09
2022-10-30T15:41:45.046Z,99342.00
2022-10-30T15:44:18.998Z,99342.88
2022-10-30T15:46:48.828Z,99360.97
2022-10-30T15:49:31.621Z,99363.47
2022-10-30T15:52:01.692Z,99365.84
2022-10-30T15:54:32.181Z,99366.34
2022-10-30T15:59:58.982Z,99373.63
2022-10-30T16:02:28.262Z,99377.22
2022-10-30T16:05:08.477Z,99379.13
2022-10-30T16:07:47.080Z,99382.38
2022-10-30T16:10:17.590Z,99389.53
2022-10-30T16:12:46.399Z,99387.69
2022-10-30T16:15:28.123Z,99386.34
2022-10-30T16:18:14.524Z,99390.84
2022-10-30T16:20:45.401Z,99394.53
2022-10-30T16:23:15.109Z,99397.97
2022-10-30T16:25:47.281Z,99399.66
2022-10-30T16:28:35.473Z,99409.56
2022-10-30T16:31:07.937Z,99405.00
2022-10-30T16:33:38.265Z,99419.59
2022-10-30T16:36:12.007Z,99434.09
2022-10-30T16:38:40.632Z,99429.00
2022-10-30T16:41:13.340Z,99430.91
2022-10-30T16:43:44.563Z,99436.25
2022-10-30T16:46:36.234Z,99448.81
2022-10-30T16:49:08.419Z,99448.94
2022-10-30T16:51:40.911Z,99451.44
2022-10-30T16:54:20.947Z,99453.59
2022-10-30T16:56:53.917Z,99456.94
2022-10-30T16:59:28.525Z,99454.94
2022-10-30T17:02:05.124Z,99465.25
2022-10-30T17:04:35.657Z,99478.13
2022-10-30T17:07:08.068Z,99477.34
2022-10-30T17:09:38.888Z,99485.59
2022-10-30T17:12:16.832Z,99487.59
2022-10-30T17:14:49.271Z,99482.56
2022-10-30T17:17:29.355Z,99483.84
2022-10-30T17:20:00.397Z,99478.97
2022-10-30T17:22:29.763Z,99484.31
2022-10-30T17:24:59.606Z,99481.91
2022-10-30T17:27:39.770Z,99482.84
2022-10-30T17:30:39.090Z,99487.97
2022-10-30T17:33:35.112Z,99492.75
2022-10-30T17:36:04.508Z,99485.22
2022-10-30T17:38:33.008Z,99494.56
2022-10-30T17:41:02.219Z,99497.47
2022-10-30T17:43:35.014Z,99499.59
2022-10-30T17:46:03.367Z,99499.91
2022-10-30T17:48:33.160Z,99498.50
2022-10-30T17:51:01.533Z,99505.22
2022-10-30T17:53:29.926Z,99504.72
2022-10-30T17:56:03.372Z,99511.13
2022-10-30T17:58:31.816Z,99517.69
2022-10-30T18:01:00.642Z,99530.34
2022-10-30T18:03:29.518Z,99532.16
2022-10-30T18:06:02.299Z,99530.50
2022-10-30T18:08:30.668Z,99530.59
2022-10-30T18:10:59.180Z,99543.09
2022-10-30T18:13:27.643Z,99539.84
2022-10-30T18:15:58.913Z,99549.41
2022-10-30T18:18:27.514Z,99552.78
2022-10-30T18:20:55.884Z,99546.59
2022-10-30T18:23:54.152Z,99560.94
2022-10-30T18:26:16.905Z,99566.25
2022-10-30T18:28:45.267Z,99562.59
2022-10-30T18:31:15.069Z,99564.22
2022-10-30T18:33:44.821Z,99569.72
2022-10-30T18:36:15.348Z,99567.22
2022-10-30T18:38:45.451Z,99563.88
2022-10-30T18:41:16.576Z,99564.44
2022-10-30T18:43:46.987Z,99562.06
2022-10-30T18:46:17.173Z,99572.41
2022-10-30T18:48:45.799Z,99571.97
2022-10-30T18:51:18.785Z,99580.88
2022-10-30T18:53:52.391Z,99585.34
2022-10-30T18:56:22.618Z,99586.28
2022-10-30T18:58:54.998Z,99583.38
2022-10-30T19:01:27.495Z,99573.44
2022-10-30T19:03:55.974Z,99579.28
2022-10-30T19:06:25.763Z,99571.56
2022-10-30T19:08:55.553Z,99571.63
2022-10-30T19:11:25.825Z,99582.25
2022-10-30T19:13:58.274Z,99583.63
2022-10-30T19:16:26.905Z,99591.13
2022-10-30T19:18:55.353Z,99585.44
2022-10-30T19:21:25.991Z,99587.19
2022-10-30T19:23:57.020Z,99584.16
2022-10-30T19:26:25.771Z,99575.22
2022-10-30T19:28:54.205Z,99587.09
2022-10-30T19:31:22.582Z,99585.00
2022-10-30T19:33:53.121Z,99586.44
2022-10-30T19:36:31.010Z,99590.59
2022-10-30T19:39:07.523Z,99589.13
2022-10-30T19:41:37.423Z,99582.22
2022-10-30T19:44:06.117Z,99590.41
2022-10-30T19:46:34.455Z,99583.44
2022-10-30T19:49:14.243Z,99569.75
2022-10-30T19:51:42.652Z,99587.34
2022-10-30T19:54:12.464Z,99589.28
2022-10-30T19:56:42.166Z,99592.72
2022-10-30T19:59:10.841Z,99591.31
2022-10-30T20:01:41.482Z,99600.00
2022-10-30T20:04:10.067Z,99593.19
2022-10-30T20:06:38.815Z,99597.84
2022-10-30T20:09:07.265Z,99603.69
2022-10-30T20:11:37.064Z,99606.00
2022-10-30T20:14:05.531Z,99603.75
2022-10-30T20:16:34.009Z,99607.72
2022-10-30T20:19:02.383Z,99603.63
2022-10-30T20:21:32.071Z,99615.28
2022-10-30T20:24:00.473Z,99609.00
2022-10-30T20:26:30.958Z,99603.19
2022-10-30T20:29:03.375Z,99604.44
2022-10-30T20:31:31.830Z,99601.72
2022-10-30T20:34:00.300Z,99606.19
2022-10-30T20:36:28.689Z,99608.22
2022-10-30T20:38:57.014Z,99625.78
2022-10-30T20:41:28.147Z,99638.19
2022-10-30T20:43:56.465Z,99644.19
2022-10-30T20:46:26.229Z,99650.91
2022-10-30T20:48:55.150Z,99650.44
2022-10-30T20:51:23.603Z,99652.06
2022-10-30T20:53:51.913Z,99651.16
2022-10-30T20:56:20.245Z,99650.31
2022-10-30T20:58:48.549Z,99658.31
2022-10-30T21:01:16.976Z,99658.16
2022-10-30T21:03:47.861Z,99668.75
2022-10-30T21:06:16.210Z,99664.50
2022-10-30T21:08:44.654Z,99673.19
2022-10-30T21:11:12.945Z,99680.94
2022-10-30T21:13:41.239Z,99683.63
2022-10-30T21:16:10.101Z,99687.34
2022-10-30T21:18:38.472Z,99688.28
2022-10-30T21:21:11.342Z,99687.47
2022-10-30T21:23:39.719Z,99690.34
2022-10-30T21:26:10.819Z,99695.59
2022-10-30T21:28:39.377Z,99692.78
2022-10-30T21:31:09.356Z,99700.81
2022-10-30T21:33:38.397Z,99696.25
2022-10-30T21:36:12.899Z,99698.06
2022-10-30T21:38:43.078Z,99694.78
2022-10-30T21:41:13.365Z,99697.47
2022-10-30T21:43:41.754Z,99697.59
2022-10-30T21:46:12.554Z,99701.06
2022-10-30T21:48:40.930Z,99690.38
2022-10-30T21:51:13.521Z,99694.72
2022-10-30T21:53:42.775Z,99699.09
2022-10-30T21:56:13.528Z,99699.06
2022-10-30T21:58:42.222Z,99705.22
2022-10-30T22:01:15.922Z,99700.94
2022-10-30T22:03:44.634Z,99701.78
2022-10-30T22:06:16.566Z,99708.94
2022-10-30T22:08:46.448Z,99700.31
2022-10-30T22:11:15.494Z,99709.22
2022-10-30T22:13:44.013Z,99713.66
2022-10-30T22:16:14.285Z,99711.81
2022-10-30T22:18:42.764Z,99707.38
2022-10-30T22:21:13.312Z,99712.75
2022-10-30T22:23:43.866Z,99713.38
2022-10-30T22:26:14.474Z,99714.19
2022-10-30T22:28:43.599Z,99715.81
2022-10-30T22:31:14.775Z,99711.34
2022-10-30T22:33:44.191Z,99717.31
2022-10-30T22:36:16.551Z,99721.59
2022-10-30T22:38:47.003Z,99719.66
2022-10-30T22:41:17.310Z,99722.16
2022-10-30T22:43:47.413Z,99728.34
2022-10-30T22:46:18.122Z,99716.69
2022-10-30T22:48:46.704Z,99720.16
2022-10-30T22:51:16.921Z,99714.94
2022-10-30T22:53:47.759Z,99722.94
2022-10-30T22:56:18.167Z,99723.72
2022-10-30T22:58:47.696Z,99721.22
2022-10-30T23:01:17.937Z,99715.16
2022-10-30T23:03:46.818Z,99715.25
2022-10-30T23:06:15.243Z,99708.13
2022-10-30T23:08:43.706Z,99702.72
2022-10-30T23:11:14.081Z,99707.03
2022-10-30T23:13:42.727Z,99714.09
2022-10-30T23:16:14.435Z,99704.69
2022-10-30T23:18:43.866Z,99699.69
2022-10-30T23:21:14.548Z,99704.34
2022-10-30T23:23:43.667Z,99712.56
2022-10-30T23:26:15.853Z,99729.03
2022-10-30T23:28:45.098Z,99729.88
2022-10-30T23:31:19.084Z,99743.19
2022-10-30T23:33:48.579Z,99757.41
2022-10-30T23:36:17.825Z,99738.09
2022-10-30T23:38:46.246Z,99738.81
2022-10-30T23:41:15.973Z,99720.25
2022-10-30T23:43:44.398Z,99733.56
2022-10-30T23:46:12.869Z,99737.03
2022-10-30T23:48:41.318Z,99729.31
2022-10-30T23:51:10.470Z,99734.41
2022-10-30T23:53:38.848Z,99735.16
2022-10-30T23:56:07.867Z,99734.09
2022-10-30T23:58:37.588Z,99737.63
